createdAt,value
2018-08-03T00:01:40.826Z,95037.13
2018-08-03T00:04:09.605Z,95037.66
2018-08-03T00:06:38.387Z,95039.78
2018-08-03T00:09:09.546Z,95033.13
2018-08-03T00:11:38.441Z,95028.56
2018-08-03T00:14:07.336Z,95024.55
2018-08-03T00:16:36.066Z,95026.92
2018-08-03T00:19:04.955Z,95017.33
2018-08-03T00:21:34.098Z,95015.20
2018-08-03T00:24:02.826Z,95022.41
2018-08-03T00:26:31.602Z,95026.65
2018-08-03T00:29:00.466Z,95022.36
2018-08-03T00:31:29.232Z,95024.76
2018-08-03T00:33:58.006Z,95025.77
2018-08-03T00:36:26.821Z,95025.77
2018-08-03T00:38:55.689Z,95021.81
2018-08-03T00:41:24.454Z,95024.22
2018-08-03T00:43:53.259Z,95026.38
2018-08-03T00:46:22.027Z,95021.59
2018-08-03T00:48:50.763Z,95024.81
2018-08-03T00:51:19.575Z,95035.50
2018-08-03T00:53:48.325Z,95031.99
2018-08-03T00:56:17.098Z,95029.86
2018-08-03T00:58:45.807Z,95033.59
2018-08-03T01:01:14.570Z,95026.41
2018-08-03T01:03:43.309Z,95028.23
2018-08-03T01:06:12.053Z,95033.23
2018-08-03T01:08:40.810Z,95034.83
2018-08-03T01:11:09.604Z,95036.38
2018-08-03T01:13:38.737Z,95032.66
2018-08-03T01:16:07.493Z,95033.18
2018-08-03T01:18:36.278Z,95032.91
2018-08-03T01:21:05.068Z,95037.97
2018-08-03T01:23:34.249Z,95036.09
2018-08-03T01:26:03.150Z,95039.81
2018-08-03T01:28:31.929Z,95034.23
2018-08-03T01:31:00.842Z,95032.59
2018-08-03T01:33:29.602Z,95038.44
2018-08-03T01:35:58.357Z,95027.75
2018-08-03T01:38:27.158Z,95032.81
2018-08-03T01:40:56.284Z,95034.14
2018-08-03T01:43:25.109Z,95035.20
2018-08-03T01:45:53.843Z,95034.14
2018-08-03T01:48:22.635Z,95033.89
2018-08-03T01:50:51.476Z,95038.98
2018-08-03T01:53:20.243Z,95042.45
2018-08-03T01:55:49.001Z,95035.78
2018-08-03T01:58:17.762Z,95041.13
2018-08-03T02:00:46.569Z,95041.91
2018-08-03T02:03:15.371Z,95048.25
2018-08-03T02:05:44.318Z,95043.73
2018-08-03T02:08:13.277Z,95044.53
2018-08-03T02:10:42.096Z,95044.53
2018-08-03T02:13:10.835Z,95045.59
2018-08-03T02:15:39.612Z,95042.06
2018-08-03T02:18:08.468Z,95041.54
2018-08-03T02:20:37.328Z,95042.34
2018-08-03T02:23:06.079Z,95044.19
2018-08-03T02:25:34.870Z,95042.80
2018-08-03T02:28:03.695Z,95048.94
2018-08-03T02:30:32.626Z,95045.72
2018-08-03T02:33:01.480Z,95052.94
2018-08-03T02:35:30.224Z,95049.98
2018-08-03T02:37:58.998Z,95062.01
2018-08-03T02:40:27.765Z,95051.91
2018-08-03T02:42:56.871Z,95047.08
2018-08-03T02:45:25.738Z,95049.44
2018-08-03T02:47:54.517Z,95051.58
2018-08-03T02:50:23.306Z,95048.94
2018-08-03T02:52:52.120Z,95052.91
2018-08-03T02:55:20.931Z,95056.86
2018-08-03T02:57:49.755Z,95060.80
2018-08-03T03:00:18.675Z,95066.40
2018-08-03T03:02:47.530Z,95060.58
2018-08-03T03:05:16.428Z,95065.38
2018-08-03T03:07:45.227Z,95061.43
2018-08-03T03:10:14.017Z,95061.13
2018-08-03T03:12:42.811Z,95061.93
2018-08-03T03:15:11.640Z,95064.84
2018-08-03T03:17:40.383Z,95062.46
2018-08-03T03:20:09.166Z,95064.04
2018-08-03T03:22:37.946Z,95064.31
2018-08-03T03:25:07.056Z,95061.93
2018-08-03T03:27:35.838Z,95061.13
2018-08-03T03:30:05.523Z,95060.85
2018-08-03T03:32:34.409Z,95066.67
2018-08-03T03:35:03.370Z,95073.56
2018-08-03T03:37:32.168Z,95070.84
2018-08-03T03:40:00.947Z,95075.39
2018-08-03T03:42:29.718Z,95068.42
2018-08-03T03:44:58.456Z,95079.88
2018-08-03T03:47:27.248Z,95070.59
2018-08-03T03:49:55.981Z,95079.41
2018-08-03T03:52:24.769Z,95077.58
2018-08-03T03:54:53.653Z,95083.49
2018-08-03T03:57:22.789Z,95084.85
2018-08-03T03:59:51.584Z,95088.91
2018-08-03T04:02:20.355Z,95098.84
2018-08-03T04:04:49.145Z,95102.13
2018-08-03T04:07:17.950Z,95105.42
2018-08-03T04:09:46.730Z,95102.30
2018-08-03T04:12:15.530Z,95094.11
2018-08-03T04:14:44.355Z,95094.21
2018-08-03T04:17:13.171Z,95102.52
2018-08-03T04:19:41.957Z,95100.94
2018-08-03T04:22:10.753Z,95102.04
2018-08-03T04:24:39.510Z,95105.22
2018-08-03T04:27:08.299Z,95101.48
2018-08-03T04:29:37.070Z,95103.09
2018-08-03T04:32:05.878Z,95107.94
2018-08-03T04:34:34.717Z,95103.16
2018-08-03T04:37:03.490Z,95098.91
2018-08-03T04:39:32.313Z,95102.16
2018-08-03T04:42:01.123Z,95103.47
2018-08-03T04:44:29.961Z,95107.78
2018-08-03T04:46:58.715Z,95112.63
2018-08-03T04:49:27.511Z,95112.64
2018-08-03T04:51:56.302Z,95111.64
2018-08-03T04:54:25.127Z,95114.34
2018-08-03T04:56:53.886Z,95111.02
2018-08-03T04:59:22.667Z,95114.55
2018-08-03T05:01:51.497Z,95118.09
2018-08-03T05:04:20.342Z,95118.78
2018-08-03T05:06:49.148Z,95116.42
2018-08-03T05:09:17.966Z,95119.27
2018-08-03T05:11:46.779Z,95116.58
2018-08-03T05:14:15.487Z,95123.78
2018-08-03T05:16:44.284Z,95122.59
2018-08-03T05:19:13.026Z,95125.02
2018-08-03T05:21:41.814Z,95127.28
2018-08-03T05:24:10.596Z,95128.98
2018-08-03T05:26:39.518Z,95136.94
2018-08-03T05:29:08.350Z,95131.36
2018-08-03T05:31:37.126Z,95130.72
2018-08-03T05:34:06.299Z,95135.70
2018-08-03T05:36:35.103Z,95133.59
2018-08-03T05:39:04.240Z,95128.59
2018-08-03T05:41:32.963Z,95124.50
2018-08-03T05:44:01.882Z,95123.45
2018-08-03T05:46:30.841Z,95123.91
2018-08-03T05:48:59.623Z,95125.78
2018-08-03T05:51:28.479Z,95128.73
2018-08-03T05:53:57.249Z,95126.92
2018-08-03T05:56:26.170Z,95128.34
2018-08-03T05:58:55.327Z,95130.13
2018-08-03T06:01:24.204Z,95122.91
2018-08-03T06:03:53.228Z,95119.56
2018-08-03T06:06:22.059Z,95121.20
2018-08-03T06:08:50.829Z,95132.60
2018-08-03T06:11:19.615Z,95130.71
2018-08-03T06:13:48.381Z,95133.65
2018-08-03T06:16:17.417Z,95131.58
2018-08-03T06:18:46.234Z,95138.65
2018-08-03T06:21:15.446Z,95137.05
2018-08-03T06:23:44.299Z,95136.21
2018-08-03T06:26:13.189Z,95132.73
2018-08-03T06:28:41.940Z,95137.80
2018-08-03T06:31:10.778Z,95131.50
2018-08-03T06:33:39.553Z,95137.49
2018-08-03T06:36:08.313Z,95138.55
2018-08-03T06:38:37.082Z,95139.22
2018-08-03T06:41:05.866Z,95137.55
2018-08-03T06:43:34.651Z,95137.89
2018-08-03T06:46:03.479Z,95140.51
2018-08-03T06:48:32.294Z,95139.44
2018-08-03T06:51:01.201Z,95136.77
2018-08-03T06:53:29.937Z,95138.44
2018-08-03T06:55:58.758Z,95139.77
2018-08-03T06:58:27.622Z,95139.81
2018-08-03T07:00:57.792Z,95135.16
2018-08-03T07:03:26.635Z,95138.91
2018-08-03T07:05:55.566Z,95136.13
2018-08-03T07:08:24.390Z,95133.63
2018-08-03T07:10:53.330Z,95140.64
2018-08-03T07:13:22.141Z,95138.48
2018-08-03T07:15:50.926Z,95144.17
2018-08-03T07:18:19.781Z,95141.09
2018-08-03T07:20:49.428Z,95143.19
2018-08-03T07:23:18.323Z,95142.78
2018-08-03T07:25:47.198Z,95141.72
2018-08-03T07:28:16.221Z,95139.41
2018-08-03T07:30:45.127Z,95138.22
2018-08-03T07:33:13.917Z,95138.89
2018-08-03T07:35:42.766Z,95138.83
2018-08-03T07:38:11.568Z,95142.11
2018-08-03T07:40:40.762Z,95145.73
2018-08-03T07:43:09.683Z,95144.63
2018-08-03T07:45:38.579Z,95134.41
2018-08-03T07:48:08.122Z,95136.13
2018-08-03T07:50:36.850Z,95144.63
2018-08-03T07:53:05.665Z,95138.61
2018-08-03T07:55:34.425Z,95138.57
2018-08-03T07:58:03.576Z,95141.30
2018-08-03T08:00:32.371Z,95136.94
2018-08-03T08:03:01.163Z,95136.75
2018-08-03T08:05:29.887Z,95148.82
2018-08-03T08:07:58.735Z,95145.59
2018-08-03T08:10:27.465Z,95154.88
2018-08-03T08:12:56.238Z,95144.66
2018-08-03T08:15:25.202Z,95158.70
2018-08-03T08:17:53.923Z,95158.80
2018-08-03T08:20:22.742Z,95161.52
2018-08-03T08:22:51.643Z,95157.50
2018-08-03T08:25:20.882Z,95160.15
2018-08-03T08:27:49.622Z,95155.02
2018-08-03T08:30:18.547Z,95164.38
2018-08-03T08:32:47.338Z,95157.41
2018-08-03T08:35:16.131Z,95156.30
2018-08-03T08:37:44.916Z,95155.84
2018-08-03T08:40:13.679Z,95154.86
2018-08-03T08:42:42.482Z,95158.73
2018-08-03T08:45:11.341Z,95156.00
2018-08-03T08:47:40.284Z,95155.41
2018-08-03T08:50:09.675Z,95153.59
2018-08-03T08:52:38.491Z,95150.36
2018-08-03T08:55:07.289Z,95152.41
2018-08-03T08:57:36.036Z,95147.47
2018-08-03T09:00:06.553Z,95147.47
2018-08-03T09:02:35.419Z,95147.86
2018-08-03T09:05:04.359Z,95147.41
2018-08-03T09:07:33.268Z,95147.95
2018-08-03T09:10:02.207Z,95141.41
2018-08-03T09:12:31.052Z,95157.73
2018-08-03T09:14:59.809Z,95148.28
2018-08-03T09:17:28.597Z,95140.44
2018-08-03T09:19:57.338Z,95131.59
2018-08-03T09:22:26.153Z,95140.23
2018-08-03T09:24:55.490Z,95137.10
2018-08-03T09:27:24.707Z,95133.63
2018-08-03T09:29:53.508Z,95127.16
2018-08-03T09:32:22.372Z,95127.88
2018-08-03T09:34:51.237Z,95130.02
2018-08-03T09:37:20.006Z,95125.40
2018-08-03T09:39:48.778Z,95121.38
2018-08-03T09:42:17.639Z,95124.25
2018-08-03T09:44:46.515Z,95128.84
2018-08-03T09:47:15.334Z,95121.56
2018-08-03T09:49:44.119Z,95116.61
2018-08-03T09:52:12.914Z,95114.84
2018-08-03T09:54:41.687Z,95106.76
2018-08-03T09:57:10.478Z,95117.89
2018-08-03T09:59:39.231Z,95122.02
2018-08-03T10:02:08.545Z,95119.95
2018-08-03T10:04:37.326Z,95107.84
2018-08-03T10:07:06.077Z,95102.59
2018-08-03T10:09:34.958Z,95112.22
2018-08-03T10:12:03.810Z,95101.50
2018-08-03T10:14:32.922Z,95107.78
2018-08-03T10:17:02.047Z,95097.38
2018-08-03T10:19:30.788Z,95098.64
2018-08-03T10:21:59.595Z,95100.84
2018-08-03T10:24:28.587Z,95096.57
2018-08-03T10:26:57.505Z,95089.83
2018-08-03T10:29:26.294Z,95088.67
2018-08-03T10:31:54.997Z,95085.59
2018-08-03T10:34:23.786Z,95083.38
2018-08-03T10:36:52.987Z,95079.30
2018-08-03T10:39:21.742Z,95073.14
2018-08-03T10:41:50.509Z,95073.63
2018-08-03T10:44:19.388Z,95069.66
2018-08-03T10:46:48.112Z,95068.63
2018-08-03T10:49:16.933Z,95065.94
2018-08-03T10:51:46.121Z,95067.80
2018-08-03T10:54:15.025Z,95065.39
2018-08-03T10:56:43.807Z,95059.31
2018-08-03T10:59:12.671Z,95060.17
2018-08-03T11:01:41.587Z,95053.87
2018-08-03T11:04:10.524Z,95059.00
2018-08-03T11:06:39.351Z,95055.87
2018-08-03T11:09:09.067Z,95061.60
2018-08-03T11:11:37.932Z,95056.42
2018-08-03T11:14:07.523Z,95053.33
2018-08-03T11:16:36.324Z,95046.73
2018-08-03T11:19:10.129Z,95054.87
2018-08-03T11:21:38.891Z,95054.48
2018-08-03T11:24:07.800Z,95058.30
2018-08-03T11:26:36.773Z,95054.58
2018-08-03T11:29:05.973Z,95059.64
2018-08-03T11:31:34.731Z,95052.63
2018-08-03T11:34:03.543Z,95054.77
2018-08-03T11:36:32.374Z,95052.05
2018-08-03T11:39:01.186Z,95042.06
2018-08-03T11:41:29.982Z,95042.80
2018-08-03T11:43:59.101Z,95045.39
2018-08-03T11:46:27.962Z,95043.19
2018-08-03T11:48:56.759Z,95053.44
2018-08-03T11:51:25.565Z,95044.75
2018-08-03T11:53:54.425Z,95032.43
2018-08-03T11:56:23.403Z,95052.10
2018-08-03T11:58:52.481Z,95043.75
2018-08-03T12:01:21.221Z,95042.06
2018-08-03T12:03:50.042Z,95035.98
2018-08-03T12:06:18.828Z,95043.21
2018-08-03T12:08:47.616Z,95037.20
2018-08-03T12:11:16.442Z,95031.53
2018-08-03T12:13:45.222Z,95025.09
2018-08-03T12:16:13.996Z,95022.41
2018-08-03T12:18:42.742Z,95016.08
2018-08-03T12:21:11.538Z,95026.48
2018-08-03T12:23:40.363Z,95015.13
2018-08-03T12:26:09.176Z,95032.13
2018-08-03T12:28:37.984Z,95022.38
2018-08-03T12:31:06.957Z,95009.05
2018-08-03T12:33:35.889Z,95014.17
2018-08-03T12:36:04.815Z,95009.63
2018-08-03T12:38:33.684Z,95008.03
2018-08-03T12:41:02.838Z,95011.55
2018-08-03T12:43:31.630Z,95007.45
2018-08-03T12:46:00.551Z,94991.13
2018-08-03T12:48:29.471Z,95000.22
2018-08-03T12:50:58.293Z,94998.98
2018-08-03T12:53:27.085Z,95001.81
2018-08-03T12:55:55.982Z,94997.69
2018-08-03T12:58:24.910Z,94988.22
2018-08-03T13:06:04.002Z,94988.17
2018-08-03T13:08:32.879Z,94987.61
2018-08-03T13:11:01.766Z,94995.28
2018-08-03T13:13:30.566Z,94989.50
2018-08-03T13:15:59.470Z,94993.39
2018-08-03T13:18:28.296Z,94992.94
2018-08-03T13:20:57.489Z,94985.50
2018-08-03T13:23:26.275Z,94990.80
2018-08-03T13:25:55.082Z,94988.55
2018-08-03T13:28:24.323Z,94993.36
2018-08-03T13:30:53.192Z,94990.64
2018-08-03T13:33:22.006Z,94994.89
2018-08-03T13:35:50.826Z,94988.88
2018-08-03T13:38:19.649Z,94992.80
2018-08-03T13:40:48.503Z,94992.86
2018-08-03T13:43:17.417Z,94987.30
2018-08-03T13:45:46.292Z,94985.11
2018-08-03T13:48:15.146Z,94982.35
2018-08-03T13:51:01.200Z,94980.91
2018-08-03T13:53:32.882Z,94980.55
2018-08-03T13:56:02.494Z,94978.77
2018-08-03T13:58:31.391Z,94973.80
2018-08-03T14:01:19.492Z,94969.64
2018-08-03T14:03:48.369Z,94969.78
2018-08-03T14:06:17.180Z,94972.49
2018-08-03T14:08:49.110Z,94973.58
2018-08-03T14:11:18.632Z,94971.48
2018-08-03T14:13:47.714Z,94973.11
2018-08-03T14:16:16.646Z,94973.72
2018-08-03T14:18:46.605Z,94978.61
2018-08-03T14:21:15.580Z,94966.45
2018-08-03T14:23:44.810Z,94963.47
2018-08-03T14:26:13.702Z,94969.58
2018-08-03T14:28:42.508Z,94967.27
2018-08-03T14:31:11.277Z,94962.00
2018-08-03T14:33:40.136Z,94962.48
2018-08-03T14:36:09.091Z,94960.88
2018-08-03T14:38:37.946Z,94950.73
2018-08-03T14:41:08.492Z,94952.14
2018-08-03T14:43:38.233Z,94939.86
2018-08-03T14:46:07.423Z,94951.91
2018-08-03T14:48:37.722Z,94953.03
2018-08-03T14:51:07.530Z,94944.50
2018-08-03T14:53:36.439Z,94956.27
2018-08-03T14:56:05.486Z,94955.83
2018-08-03T14:58:34.246Z,94952.78
2018-08-03T15:01:03.013Z,94945.02
2018-08-03T15:03:31.736Z,94949.72
2018-08-03T15:06:00.521Z,94954.16
2018-08-03T15:08:29.533Z,94953.45
2018-08-03T15:10:59.121Z,94958.32
2018-08-03T15:13:28.080Z,94957.53
2018-08-03T15:15:56.871Z,94958.42
2018-08-03T15:18:26.421Z,94967.12
2018-08-03T15:20:55.270Z,94954.55
2018-08-03T15:23:24.148Z,94964.75
2018-08-03T15:25:53.022Z,94964.78
2018-08-03T15:28:21.836Z,94969.43
2018-08-03T15:30:50.677Z,94966.64
2018-08-03T15:33:19.410Z,94956.91
2018-08-03T15:35:48.177Z,94966.35
2018-08-03T15:38:16.949Z,94966.35
2018-08-03T15:40:46.121Z,94968.09
2018-08-03T15:43:15.654Z,94963.80
2018-08-03T15:45:44.706Z,94974.02
2018-08-03T15:48:13.561Z,94972.27
2018-08-03T15:50:42.491Z,94972.14
2018-08-03T15:53:11.606Z,94979.82
2018-08-03T15:55:40.499Z,94974.70
2018-08-03T15:58:09.886Z,94970.67
2018-08-03T16:00:38.693Z,94967.98
2018-08-03T16:03:07.528Z,94978.88
2018-08-03T16:05:36.323Z,94978.97
2018-08-03T16:08:05.136Z,94980.06
2018-08-03T16:10:33.961Z,94983.59
2018-08-03T16:13:02.939Z,94983.52
2018-08-03T16:15:31.721Z,94987.06
2018-08-03T16:18:00.574Z,94984.55
2018-08-03T16:20:29.762Z,94988.12
2018-08-03T16:22:58.975Z,94996.18
2018-08-03T16:25:28.341Z,94993.66
2018-08-03T16:27:57.670Z,94994.55
2018-08-03T16:30:26.539Z,94991.86
2018-08-03T16:32:56.020Z,94990.25
2018-08-03T16:35:25.216Z,94987.83
2018-08-03T16:37:54.545Z,94994.80
2018-08-03T16:40:23.434Z,94992.86
2018-08-03T16:42:52.194Z,94990.17
2018-08-03T16:45:20.989Z,95000.48
2018-08-03T16:47:49.823Z,94997.02
2018-08-03T16:50:18.609Z,94990.19
2018-08-03T16:52:47.720Z,94985.64
2018-08-03T16:55:16.672Z,94992.45
2018-08-03T16:57:45.563Z,94994.88
2018-08-03T17:00:17.841Z,94989.97
2018-08-03T17:02:47.226Z,94998.64
2018-08-03T17:05:29.815Z,94999.19
2018-08-03T17:07:58.887Z,95001.55
2018-08-03T17:10:27.754Z,94999.50
2018-08-03T17:12:57.154Z,94995.84
2018-08-03T17:15:26.100Z,94998.55
2018-08-03T17:17:55.149Z,94997.78
2018-08-03T17:20:24.141Z,95000.78
2018-08-03T17:22:53.032Z,95005.06
2018-08-03T17:25:21.872Z,95001.81
2018-08-03T17:27:50.598Z,95009.31
2018-08-03T17:30:20.368Z,95007.44
2018-08-03T17:32:49.179Z,95011.79
2018-08-03T17:35:18.042Z,95009.66
2018-08-03T17:37:46.937Z,95002.94
2018-08-03T17:40:15.705Z,95013.39
2018-08-03T17:42:44.519Z,95012.05
2018-08-03T17:45:13.484Z,95017.95
2018-08-03T17:47:42.341Z,95014.51
2018-08-03T17:50:11.191Z,95022.59
2018-08-03T17:52:40.087Z,95025.84
2018-08-03T17:55:08.863Z,95024.83
2018-08-03T17:57:37.700Z,95025.64
2018-08-03T18:00:06.908Z,95015.78
2018-08-03T18:02:35.710Z,95022.25
2018-08-03T18:05:05.028Z,95024.67
2018-08-03T18:07:33.862Z,95023.65
2018-08-03T18:10:02.735Z,95019.92
2018-08-03T18:12:31.717Z,95028.57
2018-08-03T18:15:00.586Z,95028.34
2018-08-03T18:17:29.359Z,95030.25
2018-08-03T18:19:58.107Z,95035.09
2018-08-03T18:22:26.895Z,95043.97
2018-08-03T18:24:55.667Z,95046.41
2018-08-03T18:27:24.514Z,95048.27
2018-08-03T18:29:53.377Z,95051.75
2018-08-03T18:32:22.266Z,95058.19
2018-08-03T18:34:51.112Z,95056.30
2018-08-03T18:37:19.933Z,95060.06
2018-08-03T18:39:48.745Z,95061.95
2018-08-03T18:42:17.507Z,95068.11
2018-08-03T18:44:46.267Z,95067.58
2018-08-03T18:47:15.094Z,95065.75
2018-08-03T18:49:44.075Z,95065.78
2018-08-03T18:52:13.000Z,95066.32
2018-08-03T18:54:41.839Z,95070.63
2018-08-03T18:57:10.685Z,95070.63
2018-08-03T18:59:39.516Z,95069.87
2018-08-03T19:02:08.591Z,95069.60
2018-08-03T19:04:37.395Z,95067.50
2018-08-03T19:07:06.170Z,95064.02
2018-08-03T19:09:34.934Z,95068.58
2018-08-03T19:12:04.081Z,95075.58
2018-08-03T19:14:32.867Z,95071.30
2018-08-03T19:17:01.733Z,95078.53
2018-08-03T19:19:30.693Z,95079.61
2018-08-03T19:21:59.579Z,95071.34
2018-08-03T19:24:28.575Z,95076.73
2018-08-03T19:26:57.335Z,95082.09
2018-08-03T19:29:26.099Z,95083.97
2018-08-03T19:31:54.904Z,95086.14
2018-08-03T19:34:23.802Z,95078.16
2018-08-03T19:36:52.675Z,95081.89
2018-08-03T19:39:21.671Z,95084.87
2018-08-03T19:41:50.503Z,95084.86
2018-08-03T19:44:19.241Z,95080.34
2018-08-03T19:46:49.704Z,95078.22
2018-08-03T19:49:18.564Z,95075.28
2018-08-03T19:51:47.507Z,95080.62
2018-08-03T19:54:16.361Z,95078.48
2018-08-03T19:56:45.453Z,95070.72
2018-08-03T19:59:14.294Z,95071.02
2018-08-03T20:01:43.234Z,95067.27
2018-08-03T20:04:12.398Z,95070.77
2018-08-03T20:06:41.249Z,95067.28
2018-08-03T20:09:11.965Z,95074.27
2018-08-03T20:11:40.946Z,95077.99
2018-08-03T20:14:09.646Z,95073.98
2018-08-03T20:16:38.418Z,95075.58
2018-08-03T20:19:07.216Z,95075.33
2018-08-03T20:21:35.962Z,95076.36
2018-08-03T20:24:05.510Z,95073.97
2018-08-03T20:26:34.293Z,95074.78
2018-08-03T20:29:03.049Z,95079.58
2018-08-03T20:31:31.793Z,95083.86
2018-08-03T20:34:00.628Z,95073.70
2018-08-03T20:36:29.515Z,95081.45
2018-08-03T20:38:58.347Z,95084.13
2018-08-03T20:41:27.329Z,95079.31
2018-08-03T20:43:56.238Z,95082.25
2018-08-03T20:46:25.022Z,95084.37
2018-08-03T20:48:53.749Z,95084.11
2018-08-03T20:51:22.552Z,95086.27
2018-08-03T20:53:51.306Z,95087.06
2018-08-03T20:56:20.265Z,95089.99
2018-08-03T20:58:49.025Z,95098.82
2018-08-03T21:01:17.781Z,95086.50
2018-08-03T21:03:46.557Z,95089.20
2018-08-03T21:06:15.269Z,95090.00
2018-08-03T21:08:44.010Z,95096.95
2018-08-03T21:11:13.161Z,95096.69
2018-08-03T21:13:41.972Z,95092.41
2018-08-03T21:16:10.789Z,95102.57
2018-08-03T21:18:39.529Z,95102.81
2018-08-03T21:21:08.263Z,95103.35
2018-08-03T21:23:37.065Z,95102.04
2018-08-03T21:26:06.058Z,95099.08
2018-08-03T21:28:34.864Z,95095.59
2018-08-03T21:31:03.647Z,95097.20
2018-08-03T21:33:32.422Z,95109.77
2018-08-03T21:36:01.223Z,95101.74
2018-08-03T21:38:30.003Z,95112.70
2018-08-03T21:40:58.755Z,95101.19
2018-08-03T21:43:27.527Z,95107.35
2018-08-03T21:45:56.358Z,95103.88
2018-08-03T21:48:25.121Z,95105.47
2018-08-03T21:50:53.927Z,95103.58
2018-08-03T21:53:22.660Z,95108.11
2018-08-03T21:55:51.396Z,95107.84
2018-08-03T21:58:20.199Z,95108.37
2018-08-03T22:00:49.582Z,95109.98
2018-08-03T22:03:18.361Z,95107.03
2018-08-03T22:05:47.140Z,95104.89
2018-08-03T22:08:15.997Z,95105.17
2018-08-03T22:10:44.868Z,95105.41
2018-08-03T22:13:13.663Z,95105.62
2018-08-03T22:15:42.468Z,95110.40
2018-08-03T22:18:12.886Z,95112.77
2018-08-03T22:20:41.669Z,95120.73
2018-08-03T22:23:10.675Z,95123.10
2018-08-03T22:25:39.474Z,95111.60
2018-08-03T22:28:08.311Z,95111.30
2018-08-03T22:30:37.101Z,95101.92
2018-08-03T22:33:05.934Z,95104.59
2018-08-03T22:35:34.765Z,95105.94
2018-08-03T22:38:03.545Z,95108.05
2018-08-03T22:40:32.317Z,95109.93
2018-08-03T22:43:01.309Z,95099.59
2018-08-03T22:45:30.105Z,95110.55
2018-08-03T22:47:59.057Z,95100.14
2018-08-03T22:53:06.972Z,95100.13
2018-08-03T22:55:35.863Z,95096.92
2018-08-03T22:58:04.777Z,95095.83
2018-08-03T23:00:34.262Z,95088.86
2018-08-03T23:03:03.072Z,95086.72
2018-08-03T23:05:31.887Z,95089.39
2018-08-03T23:08:01.044Z,95080.09
2018-08-03T23:10:29.801Z,95086.77
2018-08-03T23:12:58.566Z,95091.30
2018-08-03T23:15:27.378Z,95086.98
2018-08-03T23:17:56.111Z,95088.55
2018-08-03T23:20:25.111Z,95082.64
2018-08-03T23:22:53.871Z,95084.48
2018-08-03T23:25:22.773Z,95085.55
2018-08-03T23:27:51.563Z,95083.16
2018-08-03T23:30:20.338Z,95081.83
2018-08-03T23:32:49.149Z,95080.24
2018-08-03T23:35:17.909Z,95078.91
2018-08-03T23:37:46.741Z,95085.05
2018-08-03T23:40:15.479Z,95079.16
2018-08-03T23:42:44.241Z,95081.89
2018-08-03T23:45:12.985Z,95079.22
2018-08-03T23:47:41.754Z,95075.27
2018-08-03T23:50:16.313Z,95074.41
2018-08-03T23:52:46.404Z,95074.16
2018-08-03T23:55:15.394Z,95080.58
2018-08-03T23:57:44.385Z,95078.44
